Time;durP1;ratioP1;P1;durP2;ratioP2;P2;SDS_P1;SDS_P2;PMS_P1;PMS_P2;Temp;Humidity;BMP_temperature;BMP_pressure;BME280_temperature;BME280_humidity;BME280_pressure;Samples;Min_cycle;Max_cycle;Signal;HPM_P1;HPM_P2
2021/10/02 00:35:50;;;;;;;;;;;;;;;30.06;32.84;101612.22;5015638;28;1129;-34
2021/10/02 00:41:15;;;;;;;;;;;;;;;29.35;28.79;101605.88;5015744;28;1098;-28
2021/10/02 00:46:24;;;;;;;;;;;;;;;28.90;31.04;101592.84;5015347;28;983;-32
2021/10/02 00:48:49;;;;;;;;;;;;;;;28.63;31.74;101594.13;5014757;28;1145;-34
2021/10/02 00:51:15;;;;;;;;;;;;;;;28.66;31.83;101594.59;5015548;28;1254;-30
2021/10/02 00:53:40;;;;;;;;;;;;;;;28.58;31.60;101595.47;5018317;28;1449;-29
2021/10/02 00:56:05;;;;;;;;;;;;;;;28.61;32.03;101588.88;5018134;28;1235;-31
2021/10/02 00:58:30;;;;;;;;;;;;;;;28.49;32.10;101585.69;5019160;28;1903;-29
2021/10/02 01:00:56;;;;;;;;;;;;;;;28.43;32.29;101592.63;5018820;28;1047;-31
2021/10/02 01:03:25;;;;;;;;;;;;;;;28.40;32.22;101586.69;5018827;28;1117;-29
2021/10/02 01:05:50;;;;;;;;;;;;;;;28.33;32.54;101581.97;5018730;28;1204;-31
2021/10/02 01:08:16;;;;;;;;;;;;;;;28.40;32.60;101590.25;5018076;28;1192;-31
2021/10/02 01:10:44;;;;;;;;;;;;;;;28.38;32.82;101588.75;5018279;28;1120;-30
2021/10/02 01:13:12;;;;;;;;;;;;;;;28.27;32.82;101585.34;5018454;28;1101;-31
2021/10/02 01:15:57;;;;;;;;;;;;;;;28.30;32.97;101592.25;5018543;28;1032;-34
2021/10/02 01:18:23;;;;;;;;;;;;;;;28.27;33.13;101585.34;4994121;28;1953;-31
2021/10/02 01:21:06;;;;;;;;;;;;;;;28.24;33.14;101588.41;5018317;28;1137;-31
2021/10/02 01:23:31;;;;;;;;;;;;;;;27.96;34.15;101588.75;5005449;28;1180;-30
2021/10/02 01:25:57;;;;;;;;;;;;;;;28.16;33.85;101586.53;5018663;28;1216;-35
2021/10/02 01:28:22;;;;;;;;;;;;;;;29.07;32.22;101590.94;5018049;28;1255;-32
2021/10/02 01:49:36;;;;;;;;;;;;;;;28.72;27.61;101580.38;5004988;28;1003;-35
2021/10/02 01:52:01;;;;;;;;;;;;;;;27.62;27.00;101579.72;5017661;28;1215;-30
2021/10/02 01:54:26;;;;;;;;;;;;;;;27.19;27.11;101583.31;5016261;28;1108;-34
2021/10/02 01:56:52;;;;;;;;;;;;;;;26.90;27.00;101587.22;5017649;28;1957;-35
2021/10/02 01:59:17;;;;;;;;;;;;;;;26.69;27.56;101585.75;5015971;28;1128;-30
2021/10/02 02:01:43;;;;;;;;;;;;;;;26.65;27.74;101585.22;5016574;28;1073;-30
2021/10/02 02:04:09;;;;;;;;;;;;;;;26.37;28.43;101579.13;5017582;28;1117;-29
2021/10/02 02:06:34;;;;;;;;;;;;;;;26.32;27.76;101584.13;5017649;28;1148;-28
2021/10/02 02:08:59;;;;;;;;;;;;;;;26.23;27.83;101591.28;5016170;28;1165;-29
2021/10/02 02:11:25;;;;;;;;;;;;;;;26.06;27.99;101585.78;5005086;28;1196;-29
2021/10/02 02:13:50;;;;;;;;;;;;;;;26.09;27.26;101590.03;5016204;28;951;-31
2021/10/02 02:16:15;;;;;;;;;;;;;;;26.34;27.52;101582.97;5016366;28;1894;-32
2021/10/02 02:18:41;;;;;;;;;;;;;;;26.51;27.88;101580.41;5015662;28;1208;-32
2021/10/02 02:21:09;;;;;;;;;;;;;;;26.93;28.72;101578.78;5017419;28;1152;-31
2021/10/02 02:23:35;;;;;;;;;;;;;;;27.41;28.16;101586.41;5016964;28;1219;-28
2021/10/02 02:26:03;;;;;;;;;;;;;;;28.98;25.95;101593.88;5015222;28;1281;-29
2021/10/02 02:28:28;;;;;;;;;;;;;;;29.85;25.29;101602.03;5017148;28;1330;-31
2021/10/02 02:30:54;;;;;;;;;;;;;;;29.64;25.66;101601.69;5016534;28;1020;-29
2021/10/02 02:33:19;;;;;;;;;;;;;;;29.16;26.41;101599.88;5016301;28;1137;-30
2021/10/02 02:35:45;;;;;;;;;;;;;;;28.92;27.17;101601.66;5016810;28;1200;-30
2021/10/02 02:38:10;;;;;;;;;;;;;;;28.66;27.86;101600.00;5016704;28;1973;-30
2021/10/02 02:40:35;;;;;;;;;;;;;;;29.30;26.45;101603.72;5016920;28;1110;-30
2021/10/02 02:43:01;;;;;;;;;;;;;;;29.69;26.24;101607.41;5016761;28;1105;-29
2021/10/02 02:45:26;;;;;;;;;;;;;;;30.05;25.89;101613.22;5014629;28;1100;-34
2021/10/02 02:47:54;;;;;;;;;;;;;;;30.33;25.69;101596.41;5017060;28;1101;-29
2021/10/02 02:50:20;;;;;;;;;;;;;;;29.84;26.42;101603.91;5016506;28;1132;-32
2021/10/02 02:52:52;;;;;;;;;;;;;;;29.64;26.92;101604.41;5016805;28;1206;-29
2021/10/02 02:55:21;;;;;;;;;;;;;;;29.41;27.38;101602.44;5016906;28;1183;-30
2021/10/02 02:57:47;;;;;;;;;;;;;;;29.19;27.79;101604.97;5012927;28;1898;-29
2021/10/02 03:00:18;;;;;;;;;;;;;;;29.00;27.85;101603.50;5016180;28;1032;-30
2021/10/02 03:02:51;;;;;;;;;;;;;;;28.84;28.52;101602.50;4997676;28;1161;-28
2021/10/02 03:05:16;;;;;;;;;;;;;;;28.78;28.35;101597.78;5024525;28;1148;-32
2021/10/02 03:07:43;;;;;;;;;;;;;;;28.69;29.07;101599.69;4998935;28;1129;-32
2021/10/02 03:10:10;;;;;;;;;;;;;;;29.33;28.11;101595.22;4999130;28;1188;-33
2021/10/02 03:12:40;;;;;;;;;;;;;;;29.94;27.34;101601.81;5016428;28;1133;-32
2021/10/02 03:15:05;;;;;;;;;;;;;;;30.17;27.17;101597.38;4998623;28;1178;-33
2021/10/02 03:17:31;;;;;;;;;;;;;;;29.73;27.15;101597.03;5016233;28;1894;-31
2021/10/02 03:19:57;;;;;;;;;;;;;;;28.14;24.48;101588.56;5016447;28;1172;-32
2021/10/02 03:22:22;;;;;;;;;;;;;;;27.26;25.65;101589.75;5016164;28;1124;-30
2021/10/02 03:24:47;;;;;;;;;;;;;;;27.24;25.64;101580.13;5002975;28;1564;-32
2021/10/02 03:27:13;;;;;;;;;;;;;;;27.22;26.27;101577.59;4998484;28;1215;-31
2021/10/02 03:29:38;;;;;;;;;;;;;;;27.72;26.14;101566.06;5015413;28;1207;-32
2021/10/02 03:32:04;;;;;;;;;;;;;;;27.84;27.11;101558.47;5002734;28;1062;-29
2021/10/02 03:34:29;;;;;;;;;;;;;;;27.98;26.68;101556.94;5016536;28;1198;-29
2021/10/02 03:36:55;;;;;;;;;;;;;;;28.08;26.57;101551.34;5011778;28;1902;-31
2021/10/02 03:39:20;;;;;;;;;;;;;;;28.12;27.12;101560.84;4998663;28;1153;-28
2021/10/02 03:42:02;;;;;;;;;;;;;;;28.31;26.94;101554.22;5015933;28;1207;-31
2021/10/02 03:44:27;;;;;;;;;;;;;;;28.39;27.07;101557.97;5003593;28;1257;-30
2021/10/02 03:46:52;;;;;;;;;;;;;;;27.95;26.63;101562.69;5014459;28;1237;-30
2021/10/02 03:49:17;;;;;;;;;;;;;;;25.54;24.71;101555.78;5015782;28;1132;-31
2021/10/02 03:51:45;;;;;;;;;;;;;;;24.85;25.09;101550.75;5015631;28;1129;-29
2021/10/02 03:54:11;;;;;;;;;;;;;;;24.19;25.73;101545.28;5015595;28;1180;-32
2021/10/02 03:56:36;;;;;;;;;;;;;;;23.80;26.32;101555.03;5015864;28;1953;-32
2021/10/02 03:59:01;;;;;;;;;;;;;;;23.92;27.32;101552.22;5003754;28;1213;-34
2021/10/02 04:01:27;;;;;;;;;;;;;;;26.71;25.26;101550.50;5008727;28;947;-32
2021/10/02 04:03:52;;;;;;;;;;;;;;;26.61;26.50;101553.34;5016005;28;1621;-32
2021/10/02 04:06:17;;;;;;;;;;;;;;;26.64;27.11;101556.53;5016459;28;1164;-29
2021/10/02 04:08:43;;;;;;;;;;;;;;;26.81;26.56;101559.31;5015008;28;984;-30
2021/10/02 04:11:08;;;;;;;;;;;;;;;26.91;27.00;101551.09;5015006;28;1113;-30
2021/10/02 04:13:33;;;;;;;;;;;;;;;26.67;28.51;101558.09;5015465;28;1168;-28
2021/10/02 04:15:58;;;;;;;;;;;;;;;26.66;28.74;101559.06;5014501;28;1034;-31
2021/10/02 04:18:24;;;;;;;;;;;;;;;26.75;28.59;101552.72;5014703;28;1902;-28
2021/10/02 04:20:49;;;;;;;;;;;;;;;27.04;28.98;101560.63;5015086;28;1173;-28
2021/10/02 04:23:14;;;;;;;;;;;;;;;27.18;28.72;101556.44;5016104;28;1219;-27
2021/10/02 04:25:39;;;;;;;;;;;;;;;27.30;28.91;101567.81;5015716;28;1181;-31
2021/10/02 04:28:05;;;;;;;;;;;;;;;27.27;29.21;101569.00;5018625;28;1208;-29
2021/10/02 04:30:30;;;;;;;;;;;;;;;27.17;29.49;101574.53;5019157;28;1043;-29
2021/10/02 04:32:55;;;;;;;;;;;;;;;27.37;29.33;101568.84;5019030;28;1062;-32
2021/10/02 04:35:20;;;;;;;;;;;;;;;27.22;30.00;101571.34;5019308;28;1209;-32
2021/10/02 04:37:47;;;;;;;;;;;;;;;27.27;30.04;101577.09;5019663;28;1963;-32
2021/10/02 04:40:13;;;;;;;;;;;;;;;27.25;30.13;101576.41;5019484;28;1097;-28
2021/10/02 04:42:38;;;;;;;;;;;;;;;27.40;29.73;101579.31;5019391;28;1192;-30
2021/10/02 04:45:03;;;;;;;;;;;;;;;27.27;30.14;101577.09;5018659;28;1117;-28
2021/10/02 04:47:29;;;;;;;;;;;;;;;27.23;30.60;101581.13;5018924;28;1156;-31
2021/10/02 04:49:54;;;;;;;;;;;;;;;27.17;30.94;101587.19;5019263;28;1121;-31
2021/10/02 04:52:19;;;;;;;;;;;;;;;27.22;30.84;101593.81;5019107;28;1093;-31
2021/10/02 04:54:45;;;;;;;;;;;;;;;27.46;30.81;101596.75;5019283;28;1309;-30
2021/10/02 04:57:10;;;;;;;;;;;;;;;27.26;30.79;101597.84;5019017;28;1949;-31
2021/10/02 04:59:35;;;;;;;;;;;;;;;27.24;31.24;101591.75;5018781;28;1004;-32
2021/10/02 05:02:00;;;;;;;;;;;;;;;27.54;30.98;101596.75;5018491;28;1163;-30
2021/10/02 05:04:26;;;;;;;;;;;;;;;27.61;30.70;101602.34;5018975;28;1069;-31
2021/10/02 05:06:51;;;;;;;;;;;;;;;27.37;31.12;101602.13;5018655;28;1160;-31
2021/10/02 05:09:16;;;;;;;;;;;;;;;27.28;31.40;101603.09;5018476;28;1124;-33
2021/10/02 05:11:42;;;;;;;;;;;;;;;27.37;31.53;101599.41;5018220;28;972;-30
2021/10/02 05:14:07;;;;;;;;;;;;;;;27.36;31.38;101589.59;5018525;28;1133;-29
2021/10/02 05:16:32;;;;;;;;;;;;;;;27.24;31.65;101590.94;5018688;28;1965;-32
2021/10/02 05:18:57;;;;;;;;;;;;;;;27.33;31.68;101591.78;5018227;28;1117;-31
2021/10/02 05:21:23;;;;;;;;;;;;;;;27.40;31.71;101600.94;5017751;28;1164;-33
2021/10/02 05:23:48;;;;;;;;;;;;;;;27.34;31.73;101604.31;5018126;28;1113;-33
2021/10/02 05:26:13;;;;;;;;;;;;;;;27.65;31.26;101605.53;5018471;28;1156;-31
2021/10/02 05:28:39;;;;;;;;;;;;;;;27.66;31.16;101605.38;5018655;28;1153;-34
2021/10/02 05:31:04;;;;;;;;;;;;;;;27.63;31.20;101603.00;5017706;28;972;-29
2021/10/02 05:33:29;;;;;;;;;;;;;;;27.71;31.17;101604.94;5017974;28;1215;-30
2021/10/02 05:35:54;;;;;;;;;;;;;;;27.65;31.28;101609.09;5018030;28;1176;-32
2021/10/02 05:38:20;;;;;;;;;;;;;;;27.60;32.03;101608.75;5017357;28;1968;-33
2021/10/02 05:40:47;;;;;;;;;;;;;;;27.50;31.71;101617.00;5018137;28;1177;-31
2021/10/02 05:43:12;;;;;;;;;;;;;;;27.69;31.73;101620.47;5032743;28;1117;-31
2021/10/02 05:45:37;;;;;;;;;;;;;;;27.80;31.32;101622.00;5017823;28;1160;-31
2021/10/02 05:48:02;;;;;;;;;;;;;;;27.88;31.07;101608.50;5018142;28;1124;-34
2021/10/02 05:50:28;;;;;;;;;;;;;;;27.94;30.86;101623.22;5017921;28;1136;-30
2021/10/02 05:52:53;;;;;;;;;;;;;;;27.87;31.38;101617.63;5018085;28;1183;-31
2021/10/02 05:55:18;;;;;;;;;;;;;;;27.79;31.16;101625.72;5018208;28;1129;-32
2021/10/02 05:57:43;;;;;;;;;;;;;;;27.73;31.43;101619.13;5017633;28;1961;-33
2021/10/02 06:00:09;;;;;;;;;;;;;;;27.82;31.39;101623.53;5017771;28;952;-30
2021/10/02 06:02:35;;;;;;;;;;;;;;;27.61;31.92;101616.69;5017578;28;1089;-32
2021/10/02 06:05:00;;;;;;;;;;;;;;;27.74;31.39;101618.94;5017835;28;1203;-29
2021/10/02 06:07:25;;;;;;;;;;;;;;;27.73;31.89;101619.13;5017963;28;1524;-28
2021/10/02 06:09:51;;;;;;;;;;;;;;;27.93;31.17;101618.78;5017843;28;1141;-31
2021/10/02 06:12:17;;;;;;;;;;;;;;;27.70;31.84;101619.44;5016891;28;1160;-29
2021/10/02 06:14:42;;;;;;;;;;;;;;;27.82;31.61;101625.38;5017395;28;1168;-31
2021/10/02 06:17:08;;;;;;;;;;;;;;;27.87;31.50;101621.19;5017604;28;1902;-32
2021/10/02 06:19:33;;;;;;;;;;;;;;;27.91;31.31;101627.06;5017188;28;1247;-32
2021/10/02 06:21:59;;;;;;;;;;;;;;;27.91;31.42;101620.84;5017550;28;1081;-32
2021/10/02 06:24:25;;;;;;;;;;;;;;;27.94;31.39;101620.50;5017377;28;1148;-32
2021/10/02 06:26:50;;;;;;;;;;;;;;;28.08;31.33;101625.25;5017711;28;1144;-31
2021/10/02 06:29:15;;;;;;;;;;;;;;;27.81;31.61;101627.25;5016837;28;972;-34
2021/10/02 06:31:41;;;;;;;;;;;;;;;28.07;31.13;101620.00;5017231;28;1132;-35
2021/10/02 06:34:06;;;;;;;;;;;;;;;27.98;31.50;101628.13;5017624;28;1104;-32
2021/10/02 06:36:32;;;;;;;;;;;;;;;28.04;31.14;101629.31;5016639;28;1981;-32
2021/10/02 06:38:59;;;;;;;;;;;;;;;27.86;31.78;101630.28;5017083;28;1185;-32
2021/10/02 06:41:24;;;;;;;;;;;;;;;28.03;31.25;101633.00;5016672;28;1216;-34
2021/10/02 06:43:50;;;;;;;;;;;;;;;28.06;31.61;101632.66;5016628;28;1191;-34
2021/10/02 06:46:15;;;;;;;;;;;;;;;27.88;31.52;101632.81;5016821;28;1104;-34
2021/10/02 06:48:41;;;;;;;;;;;;;;;27.94;31.32;101634.88;5016932;28;1094;-33
2021/10/02 06:51:07;;;;;;;;;;;;;;;27.70;32.25;101631.13;5003324;28;1082;-30
2021/10/02 06:53:32;;;;;;;;;;;;;;;27.78;32.34;101632.16;5016342;28;1105;-33
2021/10/02 06:55:57;;;;;;;;;;;;;;;27.79;31.76;101634.69;5017029;28;1084;-31
2021/10/02 06:58:23;;;;;;;;;;;;;;;27.61;32.46;101635.63;5016760;28;1906;-33
2021/10/02 07:00:48;;;;;;;;;;;;;;;27.78;32.32;101640.25;5016670;28;995;-31
2021/10/02 07:03:13;;;;;;;;;;;;;;;27.77;32.17;101634.00;5016063;28;1180;-28
2021/10/02 07:05:39;;;;;;;;;;;;;;;27.84;32.16;101631.47;5015729;28;1140;-32
2021/10/02 07:08:04;;;;;;;;;;;;;;;27.80;32.23;101624.69;5016367;28;1237;-30
2021/10/02 07:10:29;;;;;;;;;;;;;;;27.94;31.73;101621.38;5016156;28;1181;-31
2021/10/02 07:12:55;;;;;;;;;;;;;;;28.07;31.36;101625.41;5015969;28;1140;-31
2021/10/02 07:15:20;;;;;;;;;;;;;;;28.05;31.67;101617.47;5016760;28;1128;-33
2021/10/02 07:17:46;;;;;;;;;;;;;;;27.75;32.16;101614.38;5016261;28;1902;-33
2021/10/02 07:20:14;;;;;;;;;;;;;;;27.46;32.54;101616.47;5015732;28;1076;-29
2021/10/02 07:22:39;;;;;;;;;;;;;;;27.35;32.32;101614.09;5016215;28;1220;-32
2021/10/02 07:25:05;;;;;;;;;;;;;;;27.15;32.25;101614.34;5015770;28;1164;-33
2021/10/02 07:27:30;;;;;;;;;;;;;;;27.08;32.46;101622.25;5015471;28;1222;-32
2021/10/02 07:29:55;;;;;;;;;;;;;;;26.97;32.31;101625.22;5015994;28;1129;-32
2021/10/02 07:32:23;;;;;;;;;;;;;;;27.51;32.24;101622.25;5015726;28;1172;-32
2021/10/02 07:34:49;;;;;;;;;;;;;;;27.70;31.82;101628.41;5015698;28;1145;-33
2021/10/02 07:37:14;;;;;;;;;;;;;;;27.69;31.68;101629.44;5015423;28;1983;-31
2021/10/02 07:39:39;;;;;;;;;;;;;;;27.29;30.86;101625.56;5016101;28;1036;-28
2021/10/02 07:42:04;;;;;;;;;;;;;;;27.34;31.29;101621.34;5015674;28;1110;-30
2021/10/02 07:44:30;;;;;;;;;;;;;;;27.60;31.54;101622.25;5027083;28;1393;-30
2021/10/02 07:46:55;;;;;;;;;;;;;;;27.06;32.79;101624.25;5010031;28;1133;-29
2021/10/02 07:49:21;;;;;;;;;;;;;;;27.19;32.79;101625.69;5015592;28;1203;-29
2021/10/02 07:51:46;;;;;;;;;;;;;;;27.31;32.81;101626.25;5015576;28;1164;-31
2021/10/02 07:54:12;;;;;;;;;;;;;;;27.31;32.72;101620.84;5016023;28;1182;-36
2021/10/02 07:56:37;;;;;;;;;;;;;;;27.43;32.70;101626.78;5015493;28;1899;-33
2021/10/02 07:59:05;;;;;;;;;;;;;;;27.90;31.83;101629.94;5015438;28;1108;-32
2021/10/02 08:01:30;;;;;;;;;;;;;;;27.82;31.65;101626.25;5017374;28;1199;-30
2021/10/02 08:03:56;;;;;;;;;;;;;;;27.80;32.08;101627.41;5019656;28;1199;-33
2021/10/02 08:06:21;;;;;;;;;;;;;;;27.91;31.88;101629.78;5020006;28;1156;-29
2021/10/02 08:08:46;;;;;;;;;;;;;;;28.06;31.50;101631.84;5019759;28;1200;-29
2021/10/02 08:11:12;;;;;;;;;;;;;;;28.15;31.11;101635.38;5018984;28;1085;-32
2021/10/02 08:13:37;;;;;;;;;;;;;;;28.39;31.21;101639.13;5019661;28;1165;-32
2021/10/02 08:16:02;;;;;;;;;;;;;;;28.22;31.49;101637.25;5019257;28;973;-32
2021/10/02 08:18:34;;;;;;;;;;;;;;;28.29;30.95;101640.13;5035003;28;1899;-32
2021/10/02 08:21:00;;;;;;;;;;;;;;;28.24;31.49;101642.50;5019573;28;1169;-36
2021/10/02 08:23:25;;;;;;;;;;;;;;;28.28;31.18;101641.13;5034209;28;1318;-33
2021/10/02 08:25:51;;;;;;;;;;;;;;;27.81;31.76;101640.75;5019287;28;1125;-28
2021/10/02 08:28:16;;;;;;;;;;;;;;;28.04;31.94;101647.38;5017355;28;1041;-33
2021/10/02 08:30:42;;;;;;;;;;;;;;;28.01;31.83;101648.56;5019045;28;1495;-31
2021/10/02 08:33:10;;;;;;;;;;;;;;;28.21;31.59;101648.25;5019320;28;966;-31
2021/10/02 08:35:35;;;;;;;;;;;;;;;28.17;31.98;101641.47;5018884;28;1053;-31
2021/10/02 08:38:00;;;;;;;;;;;;;;;28.31;31.26;101650.78;5018945;28;1981;-31
2021/10/02 08:40:26;;;;;;;;;;;;;;;28.31;31.46;101653.50;5018816;28;1113;-32
2021/10/02 08:42:51;;;;;;;;;;;;;;;28.21;31.94;101654.50;5018919;28;1133;-29
2021/10/02 08:45:16;;;;;;;;;;;;;;;28.15;31.75;101655.16;5003359;28;1114;-31
2021/10/02 08:47:42;;;;;;;;;;;;;;;28.12;32.14;101650.09;5018970;28;1427;-30
2021/10/02 08:50:08;;;;;;;;;;;;;;;27.93;32.16;101653.94;5018775;28;1136;-35
2021/10/02 08:52:33;;;;;;;;;;;;;;;28.12;31.91;101647.41;5019294;28;1132;-29
2021/10/02 08:54:59;;;;;;;;;;;;;;;27.97;32.28;101648.06;5018888;28;1125;-29
2021/10/02 08:57:25;;;;;;;;;;;;;;;27.99;32.26;101651.44;5018483;28;1961;-32
2021/10/02 08:59:50;;;;;;;;;;;;;;;28.06;32.30;101651.59;5018736;28;980;-31
2021/10/02 09:02:15;;;;;;;;;;;;;;;27.92;31.19;101644.16;5018149;28;1047;-32
2021/10/02 09:04:41;;;;;;;;;;;;;;;27.87;30.54;101650.06;5018614;28;1199;-31
2021/10/02 09:07:06;;;;;;;;;;;;;;;27.71;31.65;101645.50;5033420;28;1180;-32
2021/10/02 09:09:32;;;;;;;;;;;;;;;27.85;32.13;101647.53;5018849;28;1125;-32
2021/10/02 09:11:57;;;;;;;;;;;;;;;27.97;31.86;101639.97;5017920;28;1117;-30
2021/10/02 09:14:22;;;;;;;;;;;;;;;27.95;31.83;101641.97;5016767;28;1190;-30
2021/10/02 09:16:47;;;;;;;;;;;;;;;27.88;32.05;101640.94;5018674;28;1899;-30
2021/10/02 09:19:13;;;;;;;;;;;;;;;27.93;31.98;101638.59;5010532;28;1228;-34
2021/10/02 09:21:45;;;;;;;;;;;;;;;27.81;31.96;101637.22;5018366;28;1148;-30
2021/10/02 09:24:20;;;;;;;;;;;;;;;27.97;31.84;101633.69;5033659;28;1329;-29
2021/10/02 09:26:46;;;;;;;;;;;;;;;27.89;31.70;101634.53;5017668;28;1101;-29
2021/10/02 09:29:11;;;;;;;;;;;;;;;27.90;32.04;101633.50;5018125;28;1109;-30
2021/10/02 09:31:36;;;;;;;;;;;;;;;27.82;31.96;101630.78;5031384;28;1363;-29
2021/10/02 09:34:02;;;;;;;;;;;;;;;27.91;31.71;101626.25;5018278;28;1116;-31
2021/10/02 09:36:27;;;;;;;;;;;;;;;27.89;31.73;101636.38;5034503;28;1088;-29
2021/10/02 09:38:53;;;;;;;;;;;;;;;27.92;31.86;101636.03;5037769;28;1910;-32
2021/10/02 09:41:18;;;;;;;;;;;;;;;27.96;31.64;101635.53;5037952;28;1096;-32
2021/10/02 09:43:48;;;;;;;;;;;;;;;28.01;31.53;101623.38;5023597;28;1057;-34
2021/10/02 09:46:13;;;;;;;;;;;;;;;28.04;31.47;101625.75;5017943;28;1011;-31
2021/10/02 09:48:38;;;;;;;;;;;;;;;28.01;31.61;101626.91;5031324;28;1128;-30
2021/10/02 09:51:04;;;;;;;;;;;;;;;28.02;32.03;101630.47;5037935;28;1076;-31
2021/10/02 09:53:30;;;;;;;;;;;;;;;28.15;31.58;101629.97;5037371;28;1051;-31
2021/10/02 09:55:55;;;;;;;;;;;;;;;28.29;31.73;101631.16;5035765;28;1515;-33
2021/10/02 09:58:33;;;;;;;;;;;;;;;28.18;31.42;101630.47;5027945;28;1961;-31
2021/10/02 10:01:01;;;;;;;;;;;;;;;28.30;31.57;101628.28;5014982;28;1221;-31
2021/10/02 10:03:38;;;;;;;;;;;;;;;28.39;31.24;101636.44;5014515;28;1118;-28
2021/10/02 10:06:12;;;;;;;;;;;;;;;28.47;31.22;101631.88;5016701;28;1315;-31
2021/10/02 10:08:37;;;;;;;;;;;;;;;28.48;31.14;101633.56;5015903;28;1545;-32
2021/10/02 10:11:09;;;;;;;;;;;;;;;28.44;31.15;101636.78;5016054;28;1239;-28
2021/10/02 10:13:35;;;;;;;;;;;;;;;28.42;31.22;101634.25;5017571;28;1236;-31
2021/10/02 10:16:01;;;;;;;;;;;;;;;28.39;30.99;101637.28;5014113;28;1201;-32
2021/10/02 10:18:27;;;;;;;;;;;;;;;28.40;31.12;101632.69;5013003;28;1965;-30
2021/10/02 10:20:53;;;;;;;;;;;;;;;28.52;30.97;101622.38;5012202;28;1213;-31
2021/10/02 10:23:28;;;;;;;;;;;;;;;28.39;31.19;101633.72;5013751;28;1454;-29
2021/10/02 10:25:54;;;;;;;;;;;;;;;28.39;31.07;101631.88;5015835;28;1174;-29
2021/10/02 10:28:20;;;;;;;;;;;;;;;28.38;31.04;101637.47;5016877;28;1259;-33
2021/10/02 10:30:47;;;;;;;;;;;;;;;28.33;31.02;101630.69;5016642;28;1304;-30
2021/10/02 10:33:12;;;;;;;;;;;;;;;28.28;31.05;101630.31;5016546;28;1224;-31
2021/10/02 10:35:38;;;;;;;;;;;;;;;28.33;31.09;101637.94;5016378;28;1192;-33
2021/10/02 10:38:03;;;;;;;;;;;;;;;28.17;31.01;101636.06;5015848;28;1969;-34
2021/10/02 10:40:29;;;;;;;;;;;;;;;28.29;31.35;101642.84;5016814;28;1303;-31
2021/10/02 10:42:54;;;;;;;;;;;;;;;28.29;31.03;101637.44;5016606;28;1204;-29
2021/10/02 10:45:20;;;;;;;;;;;;;;;28.10;31.27;101627.78;5016340;28;1196;-29
2021/10/02 10:47:45;;;;;;;;;;;;;;;28.13;31.52;101630.16;5015929;28;1161;-31
2021/10/02 10:50:10;;;;;;;;;;;;;;;28.09;31.16;101632.34;5016159;28;1221;-31
2021/10/02 10:52:40;;;;;;;;;;;;;;;28.03;31.26;101632.19;5016406;28;1232;-30
2021/10/02 10:55:12;;;;;;;;;;;;;;;28.06;31.67;101627.25;5014881;28;1319;-33
2021/10/02 10:57:42;;;;;;;;;;;;;;;28.15;31.14;101627.25;5016208;28;1977;-33
2021/10/02 11:00:11;;;;;;;;;;;;;;;28.19;31.45;101626.78;5016702;28;972;-33
2021/10/02 11:02:43;;;;;;;;;;;;;;;28.07;31.53;101630.81;5016578;28;1105;-32
2021/10/02 11:05:32;;;;;;;;;;;;;;;27.99;31.46;101626.25;5016423;28;1152;-30
2021/10/02 11:07:57;;;;;;;;;;;;;;;28.08;31.36;101630.66;5007649;28;1164;-31
2021/10/02 11:10:41;;;;;;;;;;;;;;;27.98;31.52;101625.41;5015922;28;1252;-31
2021/10/02 11:13:06;;;;;;;;;;;;;;;28.00;31.61;101633.34;5014705;28;1205;-31
2021/10/02 11:15:31;;;;;;;;;;;;;;;27.99;31.50;101627.09;5015833;28;1271;-30
2021/10/02 11:17:57;;;;;;;;;;;;;;;27.93;31.39;101622.34;5015538;28;1965;-30
2021/10/02 11:20:48;;;;;;;;;;;;;;;27.96;31.40;101627.44;5015733;28;1217;-30
2021/10/02 11:23:32;;;;;;;;;;;;;;;27.99;31.61;101627.09;5011734;28;1363;-33
2021/10/02 11:26:10;;;;;;;;;;;;;;;27.95;31.22;101628.44;5015575;28;1173;-29
2021/10/02 11:28:35;;;;;;;;;;;;;;;27.95;31.33;101638.41;5014817;28;1166;-31
2021/10/02 11:31:01;;;;;;;;;;;;;;;27.81;31.58;101626.41;5015179;28;1267;-32
2021/10/02 11:33:46;;;;;;;;;;;;;;;27.86;31.61;101633.00;5014024;28;1343;-32
2021/10/02 11:36:35;;;;;;;;;;;;;;;27.98;31.50;101627.25;5013755;28;1838;-34
2021/10/02 11:39:21;;;;;;;;;;;;;;;27.94;31.63;101631.31;5015035;28;1964;-33
2021/10/02 11:41:48;;;;;;;;;;;;;;;27.96;31.46;101630.13;5013333;28;1221;-29
2021/10/02 11:44:19;;;;;;;;;;;;;;;27.98;31.51;101627.25;5015435;28;1140;-33
2021/10/02 11:46:44;;;;;;;;;;;;;;;27.81;31.85;101623.72;5007845;28;1087;-31
2021/10/02 11:49:12;;;;;;;;;;;;;;;27.66;32.30;101618.91;5014705;28;1179;-31
2021/10/02 11:51:38;;;;;;;;;;;;;;;27.87;31.72;101623.88;5015880;28;1169;-33
2021/10/02 11:54:09;;;;;;;;;;;;;;;27.82;32.00;101623.53;5015819;28;1209;-36
2021/10/02 11:56:35;;;;;;;;;;;;;;;27.78;32.03;101618.63;5015865;28;1199;-29
2021/10/02 11:59:00;;;;;;;;;;;;;;;27.81;32.11;101621.84;5015859;28;1961;-29
2021/10/02 12:01:29;;;;;;;;;;;;;;;27.64;32.37;101620.94;5015611;28;977;-31
2021/10/02 12:03:58;;;;;;;;;;;;;;;27.67;32.59;101615.19;5015414;28;1117;-33
2021/10/02 12:06:23;;;;;;;;;;;;;;;27.57;32.77;101620.75;5015774;28;1089;-30
2021/10/02 12:08:49;;;;;;;;;;;;;;;27.54;33.44;101615.69;5015786;28;1078;-29
2021/10/02 12:11:14;;;;;;;;;;;;;;;27.54;33.12;101615.69;5015558;28;1235;-32
2021/10/02 12:13:42;;;;;;;;;;;;;;;27.62;33.32;101615.69;5015311;28;1141;-31
2021/10/02 12:16:10;;;;;;;;;;;;;;;27.70;33.55;101614.03;5015197;28;1094;-34
2021/10/02 12:18:46;;;;;;;;;;;;;;;27.70;33.32;101611.34;5015776;28;1906;-30
2021/10/02 12:21:15;;;;;;;;;;;;;;;27.65;33.92;101617.22;5015489;28;1212;-33
2021/10/02 12:24:02;;;;;;;;;;;;;;;27.71;32.47;101615.75;5030274;28;1456;-32
2021/10/02 12:26:27;;;;;;;;;;;;;;;27.54;32.73;101614.81;5012642;28;1118;-32
2021/10/02 12:29:03;;;;;;;;;;;;;;;27.42;32.81;101614.28;5015655;28;1173;-33
2021/10/02 12:31:41;;;;;;;;;;;;;;;27.15;33.38;101611.66;5015461;28;1186;-30
2021/10/02 12:34:12;;;;;;;;;;;;;;;27.16;33.78;101621.44;5015344;28;1121;-29
2021/10/02 12:36:38;;;;;;;;;;;;;;;27.32;33.50;101615.28;5014993;28;1126;-29
2021/10/02 12:39:04;;;;;;;;;;;;;;;27.57;33.07;101623.47;5014278;28;1942;-33
2021/10/02 12:41:36;;;;;;;;;;;;;;;27.59;32.93;101618.72;5015272;28;1315;-29
2021/10/02 12:44:01;;;;;;;;;;;;;;;27.73;32.76;101621.81;5015466;28;1199;-30
2021/10/02 12:46:26;;;;;;;;;;;;;;;27.74;32.96;101615.41;5014746;28;1157;-33
2021/10/02 12:48:52;;;;;;;;;;;;;;;27.75;32.40;101617.09;5018109;28;1010;-32
2021/10/02 12:51:17;;;;;;;;;;;;;;;27.63;32.45;101619.22;5018088;28;1330;-32
2021/10/02 12:53:43;;;;;;;;;;;;;;;27.75;32.43;101622.50;5017231;28;1180;-29
2021/10/02 12:56:15;;;;;;;;;;;;;;;27.66;32.50;101629.72;5018388;28;1161;-33
2021/10/02 12:58:40;;;;;;;;;;;;;;;27.66;32.28;101623.47;5017808;28;1902;-29
2021/10/02 13:01:06;;;;;;;;;;;;;;;27.72;32.14;101615.59;5017625;28;1271;-32
2021/10/02 13:03:37;;;;;;;;;;;;;;;27.67;32.33;101622.47;5017928;28;1255;-32
2021/10/02 13:06:02;;;;;;;;;;;;;;;27.59;32.84;101621.41;5018136;28;1177;-34
2021/10/02 13:08:27;;;;;;;;;;;;;;;27.66;32.60;101627.00;5018247;28;1157;-31
2021/10/02 13:10:53;;;;;;;;;;;;;;;27.83;32.31;101618.97;5018489;28;1137;-29
2021/10/02 13:13:18;;;;;;;;;;;;;;;27.71;32.36;101613.06;5018538;28;1121;-32
2021/10/02 13:15:44;;;;;;;;;;;;;;;27.62;32.68;101620.25;5017851;28;964;-31
2021/10/02 13:18:09;;;;;;;;;;;;;;;27.42;33.24;101609.72;5017908;28;1961;-31
2021/10/02 13:20:48;;;;;;;;;;;;;;;27.59;32.76;101610.59;5018246;28;1200;-33
2021/10/02 13:23:21;;;;;;;;;;;;;;;27.58;32.70;101621.59;5018236;28;1157;-33
2021/10/02 13:25:53;;;;;;;;;;;;;;;27.60;32.79;101611.47;5018399;28;1204;-30
2021/10/02 13:28:18;;;;;;;;;;;;;;;27.71;32.47;101613.88;5018688;28;1169;-34
2021/10/02 13:30:43;;;;;;;;;;;;;;;27.56;32.91;101612.81;5017936;28;1145;-30
2021/10/02 13:33:11;;;;;;;;;;;;;;;27.73;32.84;101619.97;5017667;28;1117;-34
2021/10/02 13:35:37;;;;;;;;;;;;;;;27.62;33.11;101612.16;5018011;28;1137;-30
2021/10/02 13:38:03;;;;;;;;;;;;;;;27.66;32.96;101608.09;5017714;28;1910;-30
2021/10/02 13:40:30;;;;;;;;;;;;;;;27.58;32.80;101619.72;5017984;28;1175;-31
2021/10/02 13:42:56;;;;;;;;;;;;;;;27.46;33.47;101607.56;5017488;28;1133;-32
2021/10/02 13:45:25;;;;;;;;;;;;;;;27.48;33.21;101611.78;5017782;28;1133;-29